createdAt,value
2022-11-30T00:01:37.465Z,99.90
2022-11-30T00:04:05.819Z,99.90
2022-11-30T00:06:34.461Z,99.90
2022-11-30T00:09:02.643Z,99.90
2022-11-30T00:11:30.790Z,99.90
2022-11-30T00:14:01.924Z,99.90
2022-11-30T00:16:30.137Z,99.90
2022-11-30T00:18:58.255Z,99.90
2022-11-30T00:21:26.607Z,99.90
2022-11-30T00:23:54.694Z,99.90
2022-11-30T00:26:23.226Z,99.90
2022-11-30T00:28:51.520Z,99.90
2022-11-30T00:31:21.060Z,99.90
2022-11-30T00:33:50.307Z,99.90
2022-11-30T00:36:20.195Z,99.90
2022-11-30T00:38:49.182Z,99.90
2022-11-30T00:41:18.120Z,99.90
2022-11-30T00:43:47.256Z,99.90
2022-11-30T00:46:16.107Z,99.90
2022-11-30T00:48:45.758Z,99.90
2022-11-30T00:51:14.080Z,99.90
2022-11-30T00:53:42.800Z,99.90
2022-11-30T00:56:10.895Z,99.90
2022-11-30T00:58:39.025Z,99.90
2022-11-30T01:01:07.828Z,99.90
2022-11-30T01:03:36.220Z,99.90
2022-11-30T01:06:06.984Z,99.90
2022-11-30T01:08:35.886Z,99.90
2022-11-30T01:11:09.790Z,99.90
2022-11-30T01:13:37.935Z,99.90
2022-11-30T01:16:10.782Z,99.90
2022-11-30T01:18:39.458Z,99.90
2022-11-30T01:21:10.075Z,99.90
2022-11-30T01:23:38.290Z,99.90
2022-11-30T01:26:06.386Z,99.90
2022-11-30T01:28:34.600Z,99.90
2022-11-30T01:31:04.855Z,99.90
2022-11-30T01:33:32.994Z,99.90
2022-11-30T01:36:02.791Z,99.90
2022-11-30T01:38:37.912Z,99.90
2022-11-30T01:41:07.960Z,99.90
2022-11-30T01:43:44.335Z,99.90
2022-11-30T01:46:24.517Z,99.90
2022-11-30T01:48:59.381Z,99.90
2022-11-30T01:51:29.982Z,99.90
2022-11-30T01:54:01.289Z,99.90
2022-11-30T01:56:29.669Z,99.90
2022-11-30T01:58:57.798Z,99.90
2022-11-30T02:01:26.903Z,99.90
2022-11-30T02:03:58.902Z,99.90
2022-11-30T02:06:27.201Z,99.90
2022-11-30T02:08:56.062Z,99.90
2022-11-30T02:11:28.559Z,99.90
2022-11-30T02:14:19.093Z,99.90
2022-11-30T02:16:55.558Z,99.90
2022-11-30T02:19:51.516Z,99.90
2022-11-30T02:22:28.209Z,99.90
2022-11-30T02:25:08.297Z,99.90
2022-11-30T02:27:52.537Z,99.90
2022-11-30T02:30:24.249Z,99.90
2022-11-30T02:32:57.312Z,99.90
2022-11-30T02:35:28.693Z,99.90
2022-11-30T02:37:59.074Z,99.90
2022-11-30T02:40:27.296Z,99.90
2022-11-30T02:42:56.812Z,99.90
2022-11-30T02:45:32.382Z,99.90
2022-11-30T02:48:08.809Z,99.90
2022-11-30T02:50:42.591Z,99.90
2022-11-30T02:53:11.268Z,99.90
2022-11-30T02:55:39.381Z,99.90
2022-11-30T02:58:07.800Z,99.90
2022-11-30T03:00:37.239Z,99.90
2022-11-30T03:03:05.309Z,99.90
2022-11-30T03:05:33.529Z,99.90
2022-11-30T03:08:01.678Z,99.90
2022-11-30T03:10:29.806Z,99.90
2022-11-30T03:12:59.130Z,99.90
2022-11-30T03:15:28.037Z,99.90
2022-11-30T03:17:57.377Z,99.90
2022-11-30T03:20:25.586Z,99.90
2022-11-30T03:22:53.620Z,99.90
2022-11-30T03:25:21.686Z,99.90
2022-11-30T03:27:49.690Z,99.90
2022-11-30T03:30:17.968Z,99.90
2022-11-30T03:32:45.960Z,99.90
2022-11-30T03:35:15.784Z,99.90
2022-11-30T03:37:43.790Z,99.90
2022-11-30T03:40:12.718Z,99.90
2022-11-30T03:42:40.953Z,99.90
2022-11-30T03:45:09.468Z,99.90
2022-11-30T03:47:38.491Z,99.90
2022-11-30T03:50:07.943Z,99.90
2022-11-30T03:52:37.266Z,99.90
2022-11-30T03:55:06.148Z,99.90
2022-11-30T03:57:34.135Z,99.90
2022-11-30T04:00:02.212Z,99.90
2022-11-30T04:02:44.483Z,99.90
2022-11-30T04:05:13.511Z,99.90
2022-11-30T04:07:42.992Z,99.90
2022-11-30T04:10:12.294Z,99.90
2022-11-30T04:12:40.289Z,99.90
2022-11-30T04:15:09.625Z,99.90
2022-11-30T04:17:37.643Z,99.90
2022-11-30T04:20:07.050Z,99.90
2022-11-30T04:22:37.795Z,99.90
2022-11-30T04:25:08.316Z,99.90
2022-11-30T04:27:36.275Z,99.90
2022-11-30T04:30:05.986Z,99.90
2022-11-30T04:32:33.993Z,99.90
2022-11-30T04:35:02.035Z,99.90
2022-11-30T04:37:30.074Z,99.90
2022-11-30T04:39:58.090Z,99.90
2022-11-30T04:42:27.516Z,99.90
2022-11-30T04:44:55.552Z,99.90
2022-11-30T04:47:23.540Z,99.90
2022-11-30T04:49:51.647Z,99.90
2022-11-30T04:52:19.676Z,99.90
2022-11-30T04:54:47.856Z,99.90
2022-11-30T04:57:15.958Z,99.90
2022-11-30T04:59:45.371Z,99.90
2022-11-30T05:02:13.741Z,99.90
2022-11-30T05:04:41.825Z,99.90
2022-11-30T05:07:10.115Z,99.90
2022-11-30T05:09:38.151Z,99.90
2022-11-30T05:12:06.372Z,99.90
2022-11-30T05:14:34.438Z,99.90
2022-11-30T05:17:03.840Z,99.90
2022-11-30T05:19:32.936Z,99.90
2022-11-30T05:22:01.010Z,99.90
2022-11-30T05:24:29.035Z,99.90
2022-11-30T05:26:57.142Z,99.90
2022-11-30T05:29:25.338Z,99.90
2022-11-30T05:31:53.414Z,99.90
2022-11-30T05:34:22.874Z,99.90
2022-11-30T05:36:50.854Z,99.90
2022-11-30T05:39:18.870Z,99.90
2022-11-30T05:41:46.835Z,99.90
2022-11-30T05:44:15.064Z,99.90
2022-11-30T05:46:43.502Z,99.90
2022-11-30T05:49:11.525Z,99.90
2022-11-30T05:51:41.565Z,99.90
2022-11-30T05:54:09.801Z,99.90
2022-11-30T05:56:38.044Z,99.90
2022-11-30T05:59:06.182Z,99.90
2022-11-30T06:01:34.296Z,99.90
2022-11-30T06:04:08.856Z,99.90
2022-11-30T06:06:37.083Z,99.90
2022-11-30T06:09:06.505Z,99.90
2022-11-30T06:11:34.480Z,99.90
2022-11-30T06:14:02.556Z,99.90
2022-11-30T06:16:30.533Z,99.90
2022-11-30T06:18:58.734Z,99.90
2022-11-30T06:21:26.747Z,99.90
2022-11-30T06:23:54.747Z,99.90
2022-11-30T06:26:24.315Z,99.90
2022-11-30T06:28:52.322Z,99.90
2022-11-30T06:31:20.418Z,99.90
2022-11-30T06:33:48.475Z,99.90
2022-11-30T06:36:23.146Z,99.90
2022-11-30T06:38:51.717Z,99.90
2022-11-30T06:41:20.034Z,99.90
2022-11-30T06:43:49.399Z,99.90
2022-11-30T06:46:17.472Z,99.90
2022-11-30T06:48:49.381Z,99.90
2022-11-30T06:51:17.561Z,99.90
2022-11-30T06:53:46.356Z,99.90
2022-11-30T06:56:14.375Z,99.90
2022-11-30T06:58:42.994Z,99.90
2022-11-30T07:01:14.418Z,99.90
2022-11-30T07:03:43.415Z,99.90
2022-11-30T07:06:13.675Z,99.90
2022-11-30T07:08:42.210Z,99.90
2022-11-30T07:11:11.647Z,99.90
2022-11-30T07:13:40.157Z,99.90
2022-11-30T07:16:11.004Z,99.90
2022-11-30T07:18:40.527Z,99.90
2022-11-30T07:21:08.987Z,99.90
2022-11-30T07:23:56.981Z,99.90
2022-11-30T07:26:25.470Z,99.90
2022-11-30T07:28:58.107Z,99.90
2022-11-30T07:31:27.853Z,99.90
2022-11-30T07:33:58.497Z,99.90
2022-11-30T07:36:29.611Z,99.90
2022-11-30T07:38:57.661Z,99.90
2022-11-30T07:41:26.169Z,99.90
2022-11-30T07:43:54.134Z,99.90
2022-11-30T07:46:22.907Z,99.90
2022-11-30T07:48:50.994Z,99.90
2022-11-30T07:51:22.032Z,99.90
2022-11-30T07:53:50.618Z,99.90
2022-11-30T07:56:20.482Z,99.90
2022-11-30T07:58:49.040Z,99.90
2022-11-30T08:01:19.675Z,99.90
2022-11-30T08:03:47.949Z,99.90
2022-11-30T08:06:19.631Z,99.90
2022-11-30T08:08:50.641Z,99.90
2022-11-30T08:11:20.900Z,99.90
2022-11-30T08:13:49.052Z,99.90
2022-11-30T08:16:18.802Z,99.90
2022-11-30T08:18:47.558Z,99.90
2022-11-30T08:21:17.392Z,99.90
2022-11-30T08:23:46.775Z,99.90
2022-11-30T08:26:18.058Z,99.90
2022-11-30T08:28:47.374Z,99.90
2022-11-30T08:31:18.771Z,99.90
2022-11-30T08:33:47.434Z,99.90
2022-11-30T08:36:17.033Z,99.90
2022-11-30T08:38:46.162Z,99.90
2022-11-30T08:41:18.933Z,99.90
2022-11-30T08:43:47.293Z,99.90
2022-11-30T08:46:42.990Z,99.90
2022-11-30T08:49:21.574Z,99.90
2022-11-30T08:54:45.231Z,99.90
2022-11-30T08:57:17.355Z,99.90
2022-11-30T08:59:45.600Z,99.90
2022-11-30T09:02:17.266Z,99.90
2022-11-30T09:04:47.115Z,99.90
2022-11-30T09:07:15.355Z,99.90
2022-11-30T09:09:43.330Z,99.90
2022-11-30T09:12:13.200Z,99.90
2022-11-30T09:14:42.645Z,99.90
2022-11-30T09:17:10.673Z,99.90
2022-11-30T09:19:38.630Z,99.90
2022-11-30T09:22:06.670Z,99.90
2022-11-30T09:24:34.737Z,99.90
2022-11-30T09:27:02.774Z,99.90
2022-11-30T09:29:30.794Z,99.90
2022-11-30T09:32:00.237Z,99.90
2022-11-30T09:34:28.381Z,99.90
2022-11-30T09:36:56.457Z,99.90
2022-11-30T09:39:24.460Z,99.90
2022-11-30T09:42:27.242Z,99.90
2022-11-30T09:45:02.945Z,99.90
2022-11-30T09:47:45.727Z,99.90
2022-11-30T09:50:16.787Z,99.90
2022-11-30T09:52:47.870Z,99.90
2022-11-30T09:55:23.400Z,99.90
2022-11-30T09:57:54.880Z,99.90
2022-11-30T10:00:25.205Z,99.90
2022-11-30T10:02:58.270Z,99.90
2022-11-30T10:05:29.814Z,99.90
2022-11-30T10:08:26.571Z,99.90
2022-11-30T10:11:10.250Z,99.90
2022-11-30T10:13:52.323Z,99.90
2022-11-30T10:16:28.163Z,99.90
2022-11-30T10:19:05.655Z,99.90
2022-11-30T10:21:46.576Z,99.90
2022-11-30T10:24:27.516Z,99.90
2022-11-30T10:26:58.627Z,99.90
2022-11-30T10:29:32.952Z,99.90
2022-11-30T10:32:05.191Z,99.40
2022-11-30T10:34:36.938Z,99.30
2022-11-30T10:37:12.837Z,98.70
2022-11-30T10:39:47.572Z,98.50
2022-11-30T10:42:21.407Z,99.10
2022-11-30T10:44:59.108Z,99.10
2022-11-30T10:47:31.222Z,98.00
2022-11-30T10:50:01.062Z,98.70
2022-11-30T10:52:31.986Z,99.40
2022-11-30T10:55:04.540Z,99.90
2022-11-30T10:57:34.024Z,99.40
2022-11-30T11:00:06.545Z,98.50
2022-11-30T11:02:40.965Z,99.40
2022-11-30T11:05:29.387Z,99.90
2022-11-30T11:08:05.983Z,99.90
2022-11-30T11:10:36.700Z,98.60
2022-11-30T11:13:05.889Z,98.10
2022-11-30T11:15:35.185Z,97.70
2022-11-30T11:18:26.055Z,97.70
2022-11-30T11:21:06.778Z,97.80
2022-11-30T11:23:38.137Z,98.00
2022-11-30T11:26:08.110Z,98.10
2022-11-30T11:28:37.576Z,96.90
2022-11-30T11:31:19.502Z,97.30
2022-11-30T11:33:53.106Z,96.70
2022-11-30T11:36:27.721Z,97.10
2022-11-30T11:38:55.816Z,96.80
2022-11-30T11:41:27.776Z,96.90
2022-11-30T11:44:04.976Z,96.60
2022-11-30T11:46:34.620Z,96.30
2022-11-30T11:49:04.411Z,96.40
2022-11-30T11:51:35.531Z,95.40
2022-11-30T11:54:13.634Z,95.50
2022-11-30T11:56:42.218Z,95.70
2022-11-30T11:59:16.304Z,96.20
2022-11-30T12:01:56.333Z,96.10
2022-11-30T12:04:37.296Z,96.70
2022-11-30T12:07:18.466Z,96.30
2022-11-30T12:10:12.645Z,97.20
2022-11-30T12:12:54.657Z,96.90
2022-11-30T12:15:30.142Z,97.60
2022-11-30T12:18:14.227Z,97.10
2022-11-30T12:20:53.688Z,97.90
2022-11-30T12:23:43.215Z,97.40
2022-11-30T12:26:20.147Z,97.60
2022-11-30T12:29:01.505Z,98.40
2022-11-30T12:31:39.801Z,98.20
2022-11-30T12:34:17.156Z,97.40
2022-11-30T12:36:54.076Z,97.40
2022-11-30T12:39:33.526Z,97.40
2022-11-30T12:42:06.092Z,98.00
2022-11-30T12:44:45.789Z,98.20
2022-11-30T12:47:32.884Z,98.80
2022-11-30T12:50:13.553Z,98.70
2022-11-30T12:52:48.606Z,99.30
2022-11-30T12:55:29.725Z,98.80
2022-11-30T12:58:06.842Z,99.00
2022-11-30T13:00:46.846Z,99.20
2022-11-30T13:03:36.222Z,99.40
2022-11-30T13:06:10.203Z,99.20
2022-11-30T13:08:47.177Z,99.90
2022-11-30T13:11:19.782Z,99.80
2022-11-30T13:13:52.195Z,99.60
2022-11-30T13:16:22.262Z,99.70
2022-11-30T13:18:51.491Z,99.40
2022-11-30T13:21:27.419Z,99.90
2022-11-30T13:24:02.847Z,99.90
2022-11-30T13:26:40.002Z,99.90
2022-11-30T13:29:21.582Z,99.90
2022-11-30T13:31:55.042Z,99.90
2022-11-30T13:34:27.895Z,99.90
2022-11-30T13:37:04.793Z,99.90
2022-11-30T13:39:45.881Z,99.90
2022-11-30T13:42:39.131Z,99.90
2022-11-30T13:45:30.175Z,99.90
2022-11-30T13:47:59.250Z,99.90
2022-11-30T13:50:37.225Z,99.90
2022-11-30T13:53:25.581Z,99.90
2022-11-30T13:56:01.884Z,99.90
2022-11-30T13:58:31.946Z,99.90
2022-11-30T14:01:29.626Z,99.90
2022-11-30T14:04:23.746Z,99.90
2022-11-30T14:06:52.950Z,99.90
2022-11-30T14:10:09.051Z,99.90
2022-11-30T14:12:59.858Z,99.90
2022-11-30T14:15:51.426Z,99.90
2022-11-30T14:18:40.844Z,99.90
2022-11-30T14:21:25.391Z,99.90
2022-11-30T14:24:02.176Z,99.90
2022-11-30T14:26:36.255Z,99.90
2022-11-30T14:29:11.946Z,99.90
2022-11-30T14:31:52.600Z,99.90
2022-11-30T14:34:24.468Z,99.90
2022-11-30T14:36:56.493Z,99.90
2022-11-30T14:39:27.152Z,99.90
2022-11-30T14:41:55.204Z,99.90
2022-11-30T14:44:23.337Z,99.90
2022-11-30T14:46:52.800Z,99.90
2022-11-30T14:49:22.538Z,99.90
2022-11-30T14:51:53.666Z,99.90
2022-11-30T14:54:45.456Z,99.90
2022-11-30T14:57:20.417Z,99.90
2022-11-30T14:59:50.943Z,99.90
2022-11-30T15:02:30.177Z,99.90
2022-11-30T15:04:59.572Z,99.90
2022-11-30T15:07:30.016Z,99.90
2022-11-30T15:10:05.214Z,99.90
2022-11-30T15:12:34.155Z,99.90
2022-11-30T15:15:04.101Z,99.90
2022-11-30T15:17:33.716Z,99.90
2022-11-30T15:20:01.990Z,99.90
2022-11-30T15:22:35.556Z,99.90
2022-11-30T15:25:15.841Z,99.90
2022-11-30T15:27:44.195Z,99.90
2022-11-30T15:30:16.262Z,99.90
2022-11-30T15:32:52.791Z,99.90
2022-11-30T15:35:23.594Z,99.90
2022-11-30T15:37:52.045Z,99.90
2022-11-30T15:40:31.267Z,99.90
2022-11-30T15:43:00.168Z,99.90
2022-11-30T15:45:30.079Z,99.90
2022-11-30T15:48:00.696Z,99.90
2022-11-30T15:50:37.053Z,99.90
2022-11-30T15:53:26.667Z,99.90
2022-11-30T15:55:56.740Z,99.90
2022-11-30T15:58:34.324Z,99.90
2022-11-30T16:01:06.213Z,99.90
2022-11-30T16:03:38.008Z,99.90
2022-11-30T16:06:06.878Z,99.90
2022-11-30T16:08:34.864Z,99.90
2022-11-30T16:11:07.607Z,99.90
2022-11-30T16:13:36.214Z,99.90
2022-11-30T16:16:11.810Z,99.90
2022-11-30T16:18:41.405Z,99.90
2022-11-30T16:21:16.007Z,99.90
2022-11-30T16:23:44.872Z,99.90
2022-11-30T16:26:35.989Z,99.90
2022-11-30T16:29:04.417Z,99.90
2022-11-30T16:31:32.929Z,99.90
2022-11-30T16:34:02.536Z,99.90
2022-11-30T16:36:30.702Z,99.90
2022-11-30T16:38:58.711Z,99.90
2022-11-30T16:41:28.476Z,99.90
2022-11-30T16:43:57.966Z,99.90
2022-11-30T16:46:27.742Z,99.90
2022-11-30T16:48:56.127Z,99.90
2022-11-30T16:51:27.348Z,99.90
2022-11-30T16:53:55.760Z,99.90
2022-11-30T16:56:23.970Z,99.90
2022-11-30T16:58:52.290Z,99.90
2022-11-30T17:01:29.209Z,99.90
2022-11-30T17:04:02.056Z,99.90
2022-11-30T17:06:31.462Z,99.90
2022-11-30T17:08:59.463Z,99.90
2022-11-30T17:11:30.887Z,99.90
2022-11-30T17:13:58.935Z,99.90
2022-11-30T17:16:27.293Z,99.90
2022-11-30T17:18:55.364Z,99.90
2022-11-30T17:21:27.242Z,99.90
2022-11-30T17:23:56.667Z,99.90
2022-11-30T17:26:24.829Z,99.90
2022-11-30T17:28:52.977Z,99.90
2022-11-30T17:31:21.458Z,99.90
2022-11-30T17:33:49.808Z,99.90
2022-11-30T17:36:18.910Z,99.90
2022-11-30T17:38:46.963Z,99.90
2022-11-30T17:41:19.556Z,99.90
2022-11-30T17:43:48.267Z,99.90
2022-11-30T17:46:18.373Z,99.90
2022-11-30T17:48:47.172Z,99.90
2022-11-30T17:51:15.287Z,99.90
2022-11-30T17:53:44.289Z,99.90
2022-11-30T17:56:13.887Z,99.90
2022-11-30T17:58:45.210Z,99.90
2022-11-30T18:01:17.682Z,99.90
2022-11-30T18:03:46.139Z,99.90
2022-11-30T18:06:14.472Z,99.90
2022-11-30T18:08:42.556Z,99.90
2022-11-30T18:11:11.837Z,99.90
2022-11-30T18:13:43.813Z,99.90
2022-11-30T18:16:14.003Z,99.90
2022-11-30T18:18:47.389Z,99.90
2022-11-30T18:21:18.757Z,99.90
2022-11-30T18:23:46.921Z,99.90
2022-11-30T18:26:16.897Z,99.90
2022-11-30T18:28:46.976Z,99.90
2022-11-30T18:31:15.000Z,99.90
2022-11-30T18:33:43.109Z,99.90
2022-11-30T18:36:11.153Z,99.90
2022-11-30T18:38:41.459Z,99.90
2022-11-30T18:41:09.475Z,99.90
2022-11-30T18:43:39.326Z,99.90
2022-11-30T18:46:10.397Z,99.90
2022-11-30T18:48:39.649Z,99.90
2022-11-30T18:51:12.648Z,99.90
2022-11-30T18:53:41.005Z,99.90
2022-11-30T18:56:10.850Z,99.90
2022-11-30T18:58:38.900Z,99.90
2022-11-30T19:01:13.419Z,99.90
2022-11-30T19:03:42.057Z,99.90
2022-11-30T19:06:11.258Z,99.90
2022-11-30T19:08:41.052Z,99.90
2022-11-30T19:11:10.304Z,99.90
2022-11-30T19:13:38.497Z,99.90
2022-11-30T19:16:09.004Z,99.90
2022-11-30T19:18:39.211Z,99.90
2022-11-30T19:21:11.743Z,99.90
2022-11-30T19:23:40.512Z,99.90
2022-11-30T19:26:09.843Z,99.90
2022-11-30T19:28:39.323Z,99.90
2022-11-30T19:31:09.368Z,99.90
2022-11-30T19:33:40.367Z,99.90
2022-11-30T19:36:11.807Z,99.90
2022-11-30T19:38:39.934Z,99.90
2022-11-30T19:41:08.520Z,99.90
2022-11-30T19:43:36.879Z,99.90
2022-11-30T19:46:06.513Z,99.90
2022-11-30T19:48:35.027Z,99.90
2022-11-30T19:51:12.050Z,99.90
2022-11-30T19:53:42.411Z,99.90
2022-11-30T19:56:14.733Z,99.90
2022-11-30T19:58:43.803Z,99.90
2022-11-30T20:01:13.385Z,99.90
2022-11-30T20:03:41.593Z,99.90
2022-11-30T20:06:11.024Z,99.90
2022-11-30T20:08:39.119Z,99.90
2022-11-30T20:11:07.607Z,99.90
2022-11-30T20:13:35.689Z,99.90
2022-11-30T20:16:07.739Z,99.90
2022-11-30T20:18:37.507Z,99.90
2022-11-30T20:21:14.715Z,99.90
2022-11-30T20:23:43.589Z,99.90
2022-11-30T20:26:16.543Z,99.90
2022-11-30T20:28:44.890Z,99.90
2022-11-30T20:31:14.772Z,99.90
2022-11-30T20:33:43.854Z,99.90
2022-11-30T20:36:13.957Z,99.90
2022-11-30T20:38:42.120Z,99.90
2022-11-30T20:41:13.099Z,99.90
2022-11-30T20:43:41.385Z,99.90
2022-11-30T20:46:16.961Z,99.90
2022-11-30T20:48:45.147Z,99.90
2022-11-30T20:51:32.736Z,99.90
2022-11-30T20:54:02.468Z,99.90
2022-11-30T20:56:31.115Z,99.90
2022-11-30T20:59:02.773Z,99.90
2022-11-30T21:01:31.326Z,99.90
2022-11-30T21:04:00.553Z,99.90
2022-11-30T21:06:30.907Z,99.90
2022-11-30T21:08:59.437Z,99.90
2022-11-30T21:11:28.880Z,99.90
2022-11-30T21:13:58.472Z,99.90
2022-11-30T21:16:29.042Z,99.90
2022-11-30T21:18:58.896Z,99.90
2022-11-30T21:21:30.699Z,99.90
2022-11-30T21:24:00.526Z,99.90
2022-11-30T21:26:30.857Z,99.90
2022-11-30T21:29:02.057Z,99.90
2022-11-30T21:31:30.922Z,99.90
2022-11-30T21:33:59.009Z,99.90
2022-11-30T21:36:27.372Z,99.90
2022-11-30T21:39:04.433Z,99.90
2022-11-30T21:41:33.676Z,99.90
2022-11-30T21:44:01.757Z,99.90
2022-11-30T21:46:29.987Z,99.90
2022-11-30T21:48:58.373Z,99.90
2022-11-30T21:51:27.906Z,99.90
2022-11-30T21:53:58.815Z,99.90
2022-11-30T21:56:29.017Z,99.90
2022-11-30T21:58:57.637Z,99.90
2022-11-30T22:01:28.422Z,99.90
2022-11-30T22:03:56.857Z,99.90
2022-11-30T22:06:26.441Z,99.90
2022-11-30T22:08:56.642Z,99.90
2022-11-30T22:11:25.922Z,99.90
2022-11-30T22:13:55.023Z,99.90
2022-11-30T22:16:25.327Z,99.90
2022-11-30T22:18:55.585Z,99.90
2022-11-30T22:21:26.102Z,99.90
2022-11-30T22:23:55.790Z,99.90
2022-11-30T22:26:26.812Z,99.90
2022-11-30T22:28:57.039Z,99.90
2022-11-30T22:31:28.280Z,99.90
2022-11-30T22:33:57.359Z,99.90
2022-11-30T22:36:26.939Z,99.90
2022-11-30T22:38:56.049Z,99.90
2022-11-30T22:41:26.205Z,99.90
2022-11-30T22:43:56.254Z,99.90
2022-11-30T22:46:26.386Z,99.90
2022-11-30T22:48:54.979Z,99.90
2022-11-30T22:51:24.834Z,99.90
2022-11-30T22:53:53.717Z,99.90
2022-11-30T22:56:23.783Z,99.90
2022-11-30T22:58:55.135Z,99.90
2022-11-30T23:01:25.573Z,99.90
2022-11-30T23:03:57.235Z,99.90
2022-11-30T23:06:26.033Z,99.90
2022-11-30T23:08:54.673Z,99.90
2022-11-30T23:11:24.558Z,99.90
2022-11-30T23:13:54.268Z,99.90
2022-11-30T23:16:22.473Z,99.90
2022-11-30T23:18:53.986Z,99.90
2022-11-30T23:21:24.339Z,99.90
2022-11-30T23:23:52.786Z,99.90
2022-11-30T23:26:23.616Z,99.90
2022-11-30T23:28:54.655Z,99.90
2022-11-30T23:31:34.516Z,99.90
2022-11-30T23:34:05.112Z,99.90
2022-11-30T23:36:33.444Z,99.90
2022-11-30T23:39:03.218Z,99.90
2022-11-30T23:41:31.205Z,99.90
2022-11-30T23:44:00.919Z,99.90
2022-11-30T23:46:28.981Z,99.90
2022-11-30T23:48:57.187Z,99.90
2022-11-30T23:51:25.183Z,99.90
2022-11-30T23:53:53.461Z,99.90
2022-11-30T23:56:23.432Z,99.90
2022-11-30T23:58:51.498Z,99.90
